Terminal Aerodrome Forecast
Issued by NWS Charleston, WV

Home | Current Version | Previous Version | Text Only | Print | Product List | Glossary On
Versions: 1 2 3 4 5 6 7 8 9 10 11 12 13 14 15 16 17 18 19 20 21 22 23 24 25 26 27 28
000
FTUS41 KRLX 072344
TAFCRW
TAF
KCRW 072344Z 0800/0824 24005KT P6SM SCT050 BKN200
     FM080100 VRB03KT 4SM SHRA VCTS OVC040CB
     FM080300 19004KT 6SM SHRA BR BKN020
     FM081400 24008KT 6SM SHRA VCTS OVC035CB
     FM082200 26007KT P6SM VCSH BKN040=

USA.gov is the U.S. government's official web portal to all federal, state and local government web resources and services.